sensor_id;sensor_type;location;lat;lon;timestamp;pressure;altitude;pressure_sealevel;temperature;humidity
75868;BME280;64515;51.446;7.578;2022-10-26T00:01:44;100219.53;;;20.14;60.49
75868;BME280;64515;51.446;7.578;2022-10-26T00:04:09;100214.13;;;20.14;60.46
75868;BME280;64515;51.446;7.578;2022-10-26T00:06:34;100215.09;;;20.13;60.40
75868;BME280;64515;51.446;7.578;2022-10-26T00:09:00;100206.94;;;20.13;60.49
75868;BME280;64515;51.446;7.578;2022-10-26T00:11:25;100212.38;;;20.13;60.59
75868;BME280;64515;51.446;7.578;2022-10-26T00:13:50;100205.19;;;20.12;60.60
75868;BME280;64515;51.446;7.578;2022-10-26T00:16:17;100207.03;;;20.12;60.62
75868;BME280;64515;51.446;7.578;2022-10-26T00:18:43;100203.47;;;20.11;60.62
75868;BME280;64515;51.446;7.578;2022-10-26T00:21:08;100208.88;;;20.11;60.56
75868;BME280;64515;51.446;7.578;2022-10-26T00:23:34;100203.47;;;20.11;60.46
75868;BME280;64515;51.446;7.578;2022-10-26T00:25:59;100207.13;;;20.10;60.46
75868;BME280;64515;51.446;7.578;2022-10-26T00:28:24;100204.44;;;20.10;60.46
75868;BME280;64515;51.446;7.578;2022-10-26T00:30:49;100207.13;;;20.10;60.50
75868;BME280;64515;51.446;7.578;2022-10-26T00:33:15;100206.28;;;20.10;60.44
75868;BME280;64515;51.446;7.578;2022-10-26T00:35:40;100197.25;;;20.09;60.66
75868;BME280;64515;51.446;7.578;2022-10-26T00:38:05;100200.84;;;20.10;60.52
75868;BME280;64515;51.446;7.578;2022-10-26T00:40:30;100200.84;;;20.10;60.44
75868;BME280;64515;51.446;7.578;2022-10-26T00:42:56;100201.84;;;20.09;60.48
75868;BME280;64515;51.446;7.578;2022-10-26T00:45:25;100204.53;;;20.09;60.45
75868;BME280;64515;51.446;7.578;2022-10-26T00:48:37;100209.09;;;20.08;60.59
75868;BME280;64515;51.446;7.578;2022-10-26T00:50:38;100205.41;;;20.09;60.49
75868;BME280;64515;51.446;7.578;2022-10-26T00:53:05;100204.53;;;20.09;60.47
75868;BME280;64515;51.446;7.578;2022-10-26T00:55:31;100196.53;;;20.07;60.69
75868;BME280;64515;51.446;7.578;2022-10-26T00:57:57;100195.50;;;20.08;60.54
75868;BME280;64515;51.446;7.578;2022-10-26T01:00:23;100200.22;;;20.06;60.45
75868;BME280;64515;51.446;7.578;2022-10-26T01:02:49;100201.94;;;20.07;60.53
75868;BME280;64515;51.446;7.578;2022-10-26T01:05:16;100204.66;;;20.07;60.50
75868;BME280;64515;51.446;7.578;2022-10-26T01:07:42;100205.63;;;20.06;60.51
75868;BME280;64515;51.446;7.578;2022-10-26T01:10:08;100204.75;;;20.06;60.49
75868;BME280;64515;51.446;7.578;2022-10-26T01:12:34;100197.50;;;20.06;60.46
75868;BME280;64515;51.446;7.578;2022-10-26T01:14:59;100193.88;;;20.06;60.42
75868;BME280;64515;51.446;7.578;2022-10-26T01:17:40;100193.03;;;20.05;60.35
75868;BME280;64515;51.446;7.578;2022-10-26T01:27:34;100181.41;;;20.03;60.55
75868;BME280;64515;51.446;7.578;2022-10-26T01:30:13;100184.13;;;20.03;60.37
75868;BME280;64515;51.446;7.578;2022-10-26T01:32:43;100176.94;;;20.02;60.55
75868;BME280;64515;51.446;7.578;2022-10-26T01:37:55;100160.66;;;20.02;60.38
75868;BME280;64515;51.446;7.578;2022-10-26T01:40:26;100166.09;;;20.02;60.29
75868;BME280;64515;51.446;7.578;2022-10-26T01:42:53;100165.13;;;20.03;60.53
75868;BME280;64515;51.446;7.578;2022-10-26T01:45:20;100171.53;;;20.02;60.43
75868;BME280;64515;51.446;7.578;2022-10-26T01:47:46;100157.22;;;20.00;60.59
75868;BME280;64515;51.446;7.578;2022-10-26T01:50:12;100166.22;;;20.00;60.44
75868;BME280;64515;51.446;7.578;2022-10-26T01:52:38;100162.66;;;20.00;60.44
75868;BME280;64515;51.446;7.578;2022-10-26T01:55:05;100157.22;;;20.00;60.60
75868;BME280;64515;51.446;7.578;2022-10-26T01:57:31;100164.34;;;20.01;60.54
75868;BME280;64515;51.446;7.578;2022-10-26T02:00:05;100157.22;;;20.00;60.54
75868;BME280;64515;51.446;7.578;2022-10-26T02:17:53;100132.03;;;19.98;60.49
75868;BME280;64515;51.446;7.578;2022-10-26T02:20:24;100131.13;;;19.97;60.43
75868;BME280;64515;51.446;7.578;2022-10-26T02:22:51;100131.06;;;19.99;60.58
75868;BME280;64515;51.446;7.578;2022-10-26T02:25:21;100129.31;;;19.98;60.39
75868;BME280;64515;51.446;7.578;2022-10-26T02:27:48;100126.59;;;19.98;60.40
75868;BME280;64515;51.446;7.578;2022-10-26T02:30:14;100124.84;;;19.97;60.50
75868;BME280;64515;51.446;7.578;2022-10-26T02:32:41;100124.84;;;19.97;60.47
75868;BME280;64515;51.446;7.578;2022-10-26T02:35:08;100120.28;;;19.97;60.35
75868;BME280;64515;51.446;7.578;2022-10-26T02:37:33;100114.00;;;19.97;60.56
75868;BME280;64515;51.446;7.578;2022-10-26T02:39:59;100120.28;;;19.97;60.31
75868;BME280;64515;51.446;7.578;2022-10-26T02:42:26;100109.44;;;19.97;60.34
75868;BME280;64515;51.446;7.578;2022-10-26T02:44:55;100098.59;;;19.97;60.50
75868;BME280;64515;51.446;7.578;2022-10-26T02:47:21;100103.16;;;19.97;60.41
75868;BME280;64515;51.446;7.578;2022-10-26T02:49:47;100103.16;;;19.97;60.54
75868;BME280;64515;51.446;7.578;2022-10-26T02:52:16;100097.72;;;19.97;60.34
75868;BME280;64515;51.446;7.578;2022-10-26T02:55:44;100098.59;;;19.97;60.35
75868;BME280;64515;51.446;7.578;2022-10-26T02:57:37;100101.41;;;19.96;60.52
75868;BME280;64515;51.446;7.578;2022-10-26T03:00:05;100093.28;;;19.96;60.35
75868;BME280;64515;51.446;7.578;2022-10-26T03:02:30;100094.25;;;19.95;60.46
75868;BME280;64515;51.446;7.578;2022-10-26T03:04:55;100090.56;;;19.96;60.29
75868;BME280;64515;51.446;7.578;2022-10-26T03:07:27;100094.25;;;19.95;60.47
75868;BME280;64515;51.446;7.578;2022-10-26T03:09:53;100099.69;;;19.95;60.49
75868;BME280;64515;51.446;7.578;2022-10-26T03:12:18;100090.56;;;19.96;60.41
75868;BME280;64515;51.446;7.578;2022-10-26T03:14:43;100095.13;;;19.95;60.44
75868;BME280;64515;51.446;7.578;2022-10-26T03:17:08;100093.41;;;19.94;60.39
75868;BME280;64515;51.446;7.578;2022-10-26T03:19:33;100092.50;;;19.94;60.42
75868;BME280;64515;51.446;7.578;2022-10-26T03:21:58;100087.09;;;19.94;60.39
75868;BME280;64515;51.446;7.578;2022-10-26T03:24:24;100087.09;;;19.94;60.42
75868;BME280;64515;51.446;7.578;2022-10-26T03:26:49;100094.25;;;19.95;60.36
75868;BME280;64515;51.446;7.578;2022-10-26T03:29:14;100094.25;;;19.95;60.37
75868;BME280;64515;51.446;7.578;2022-10-26T03:31:39;100094.25;;;19.95;60.51
75868;BME280;64515;51.446;7.578;2022-10-26T03:34:04;100086.22;;;19.93;60.42
75868;BME280;64515;51.446;7.578;2022-10-26T03:36:30;100098.81;;;19.94;60.33
75868;BME280;64515;51.446;7.578;2022-10-26T03:38:55;100090.78;;;19.93;60.39
75868;BME280;64515;51.446;7.578;2022-10-26T03:41:20;100091.66;;;19.93;60.54
75868;BME280;64515;51.446;7.578;2022-10-26T03:43:45;100103.34;;;19.94;60.38
75868;BME280;64515;51.446;7.578;2022-10-26T03:46:12;100087.09;;;19.94;60.49
75868;BME280;64515;51.446;7.578;2022-10-26T03:48:37;100088.94;;;19.93;60.39
75868;BME280;64515;51.446;7.578;2022-10-26T03:51:02;100085.38;;;19.93;60.44
75868;BME280;64515;51.446;7.578;2022-10-26T03:53:27;100085.38;;;19.93;60.37
75868;BME280;64515;51.446;7.578;2022-10-26T03:55:53;100082.75;;;19.91;60.32
75868;BME280;64515;51.446;7.578;2022-10-26T03:58:18;100079.06;;;19.92;60.34
75868;BME280;64515;51.446;7.578;2022-10-26T04:00:43;100079.06;;;19.92;60.49
75868;BME280;64515;51.446;7.578;2022-10-26T04:03:08;100078.19;;;19.92;60.43
75868;BME280;64515;51.446;7.578;2022-10-26T04:05:33;100083.63;;;19.92;60.34
75868;BME280;64515;51.446;7.578;2022-10-26T04:07:59;100077.22;;;19.93;60.36
75868;BME280;64515;51.446;7.578;2022-10-26T04:10:26;100079.94;;;19.93;60.51
75868;BME280;64515;51.446;7.578;2022-10-26T04:12:52;100083.63;;;19.92;60.37
75868;BME280;64515;51.446;7.578;2022-10-26T04:15:18;100079.06;;;19.92;60.39
75868;BME280;64515;51.446;7.578;2022-10-26T04:17:43;100078.19;;;19.92;60.45
75868;BME280;64515;51.446;7.578;2022-10-26T04:20:09;100078.19;;;19.92;60.52
75868;BME280;64515;51.446;7.578;2022-10-26T04:22:34;100086.34;;;19.92;60.33
75868;BME280;64515;51.446;7.578;2022-10-26T04:25:00;100081.88;;;19.91;60.43
75868;BME280;64515;51.446;7.578;2022-10-26T04:27:25;100089.06;;;19.92;60.26
75868;BME280;64515;51.446;7.578;2022-10-26T04:29:50;100087.31;;;19.91;60.33
75868;BME280;64515;51.446;7.578;2022-10-26T04:32:16;100085.47;;;19.91;60.43
75868;BME280;64515;51.446;7.578;2022-10-26T04:34:41;100085.56;;;19.90;60.48
75868;BME280;64515;51.446;7.578;2022-10-26T04:37:06;100085.56;;;19.90;60.32
75868;BME280;64515;51.446;7.578;2022-10-26T04:39:31;100091.00;;;19.90;60.45
75868;BME280;64515;51.446;7.578;2022-10-26T04:41:56;100085.56;;;19.90;60.37
75868;BME280;64515;51.446;7.578;2022-10-26T04:44:21;100086.53;;;19.88;60.30
75868;BME280;64515;51.446;7.578;2022-10-26T04:46:46;100088.28;;;19.90;60.54
75868;BME280;64515;51.446;7.578;2022-10-26T04:49:12;100099.13;;;19.90;60.35
75868;BME280;64515;51.446;7.578;2022-10-26T04:51:37;100097.41;;;19.88;60.41
75868;BME280;64515;51.446;7.578;2022-10-26T04:54:02;100089.25;;;19.88;60.42
75868;BME280;64515;51.446;7.578;2022-10-26T04:56:27;100085.56;;;19.90;60.41
75868;BME280;64515;51.446;7.578;2022-10-26T04:58:53;100091.97;;;19.88;60.50
75868;BME280;64515;51.446;7.578;2022-10-26T05:01:18;100089.25;;;19.88;60.41
75868;BME280;64515;51.446;7.578;2022-10-26T05:03:47;100092.84;;;19.89;60.25
75868;BME280;64515;51.446;7.578;2022-10-26T05:06:12;100101.84;;;19.90;60.38
75868;BME280;64515;51.446;7.578;2022-10-26T05:08:37;100088.28;;;19.90;60.46
75868;BME280;64515;51.446;7.578;2022-10-26T05:11:02;100086.53;;;19.88;60.36
75868;BME280;64515;51.446;7.578;2022-10-26T05:13:28;100092.84;;;19.89;60.32
75868;BME280;64515;51.446;7.578;2022-10-26T05:15:53;100090.78;;;19.93;60.43
75868;BME280;64515;51.446;7.578;2022-10-26T05:18:18;100085.38;;;19.93;60.33
75868;BME280;64515;51.446;7.578;2022-10-26T05:20:43;100083.41;;;19.95;60.30
75868;BME280;64515;51.446;7.578;2022-10-26T05:23:09;100081.44;;;19.97;60.33
75868;BME280;64515;51.446;7.578;2022-10-26T05:25:35;100080.47;;;19.98;60.36
75868;BME280;64515;51.446;7.578;2022-10-26T05:28:02;100079.50;;;19.99;60.33
75868;BME280;64515;51.446;7.578;2022-10-26T05:30:28;100086.44;;;20.03;60.31
75868;BME280;64515;51.446;7.578;2022-10-26T05:32:54;100080.81;;;20.06;59.96
75868;BME280;64515;51.446;7.578;2022-10-26T05:35:19;100083.41;;;20.08;59.89
75868;BME280;64515;51.446;7.578;2022-10-26T05:37:45;100076.88;;;20.10;59.99
75868;BME280;64515;51.446;7.578;2022-10-26T05:40:10;100079.47;;;20.12;59.97
75868;BME280;64515;51.446;7.578;2022-10-26T05:42:35;100083.84;;;20.14;59.84
75868;BME280;64515;51.446;7.578;2022-10-26T05:45:00;100087.41;;;20.15;59.92
75868;BME280;64515;51.446;7.578;2022-10-26T05:47:25;100092.72;;;20.16;59.94
75868;BME280;64515;51.446;7.578;2022-10-26T05:49:51;100083.38;;;20.20;59.92
75868;BME280;64515;51.446;7.578;2022-10-26T05:52:16;100090.56;;;20.22;59.74
75868;BME280;64515;51.446;7.578;2022-10-26T05:54:41;100084.88;;;20.25;59.72
75868;BME280;64515;51.446;7.578;2022-10-26T05:57:09;100090.31;;;20.25;59.65
75868;BME280;64515;51.446;7.578;2022-10-26T05:59:35;100092.06;;;20.26;59.75
75868;BME280;64515;51.446;7.578;2022-10-26T06:02:03;100099.22;;;20.27;59.73
75868;BME280;64515;51.446;7.578;2022-10-26T06:04:37;100091.81;;;20.29;59.66
75868;BME280;64515;51.446;7.578;2022-10-26T06:07:11;100094.53;;;20.29;59.64
75868;BME280;64515;51.446;7.578;2022-10-26T06:09:37;100088.13;;;20.30;59.67
75868;BME280;64515;51.446;7.578;2022-10-26T06:12:02;100104.22;;;20.33;59.58
75868;BME280;64515;51.446;7.578;2022-10-26T06:14:27;100102.47;;;20.32;59.66
75868;BME280;64515;51.446;7.578;2022-10-26T06:22:38;100103.97;;;20.36;59.62
75868;BME280;64515;51.446;7.578;2022-10-26T06:30:18;100098.44;;;20.38;59.69
75868;BME280;64515;51.446;7.578;2022-10-26T06:32:47;100101.16;;;20.38;59.67
75868;BME280;64515;51.446;7.578;2022-10-26T06:38:07;100102.03;;;20.38;59.61
75868;BME280;64515;51.446;7.578;2022-10-26T06:40:35;100108.22;;;20.40;59.56
75868;BME280;64515;51.446;7.578;2022-10-26T06:43:02;100112.66;;;20.41;59.55
75868;BME280;64515;51.446;7.578;2022-10-26T06:45:27;100106.34;;;20.41;59.59
75868;BME280;64515;51.446;7.578;2022-10-26T06:50:23;100106.34;;;20.41;59.59
75868;BME280;64515;51.446;7.578;2022-10-26T06:52:54;100102.66;;;20.42;59.55
75868;BME280;64515;51.446;7.578;2022-10-26T06:55:22;100100.06;;;20.40;59.52
75868;BME280;64515;51.446;7.578;2022-10-26T06:57:47;100100.06;;;20.40;59.58
75868;BME280;64515;51.446;7.578;2022-10-26T07:00:19;100096.38;;;20.41;59.67
75868;BME280;64515;51.446;7.578;2022-10-26T07:02:45;100090.94;;;20.41;59.66
75868;BME280;64515;51.446;7.578;2022-10-26T07:05:10;100098.13;;;20.42;59.63
75868;BME280;64515;51.446;7.578;2022-10-26T07:07:39;100099.94;;;20.42;59.58
75868;BME280;64515;51.446;7.578;2022-10-26T07:10:05;100096.38;;;20.41;59.53
75868;BME280;64515;51.446;7.578;2022-10-26T07:12:31;100100.94;;;20.41;59.73
75868;BME280;64515;51.446;7.578;2022-10-26T07:14:56;100106.25;;;20.42;59.67
75868;BME280;64515;51.446;7.578;2022-10-26T07:17:21;100092.69;;;20.42;59.66
75868;BME280;64515;51.446;7.578;2022-10-26T07:19:46;100107.00;;;20.44;59.61
75868;BME280;64515;51.446;7.578;2022-10-26T07:22:11;100102.47;;;20.45;59.93
75868;BME280;64515;51.446;7.578;2022-10-26T07:24:37;100108.75;;;20.45;59.51
75868;BME280;64515;51.446;7.578;2022-10-26T07:27:02;100110.47;;;20.46;59.66
75868;BME280;64515;51.446;7.578;2022-10-26T07:29:27;100112.22;;;20.47;59.67
75868;BME280;64515;51.446;7.578;2022-10-26T07:31:52;100111.34;;;20.47;59.63
75868;BME280;64515;51.446;7.578;2022-10-26T07:34:18;100110.47;;;20.46;59.53
75868;BME280;64515;51.446;7.578;2022-10-26T07:36:43;100111.47;;;20.45;59.49
75868;BME280;64515;51.446;7.578;2022-10-26T07:39:08;100118.50;;;20.48;59.59
75868;BME280;64515;51.446;7.578;2022-10-26T07:41:34;100111.34;;;20.47;59.65
75868;BME280;64515;51.446;7.578;2022-10-26T07:43:59;100113.97;;;20.48;59.53
75868;BME280;64515;51.446;7.578;2022-10-26T07:46:24;100121.13;;;20.49;59.48
75868;BME280;64515;51.446;7.578;2022-10-26T07:48:50;100118.41;;;20.49;59.45
75868;BME280;64515;51.446;7.578;2022-10-26T07:51:15;100120.13;;;20.50;59.60
75868;BME280;64515;51.446;7.578;2022-10-26T07:53:40;100119.16;;;20.51;59.52
75868;BME280;64515;51.446;7.578;2022-10-26T07:56:05;100117.41;;;20.50;59.52
75868;BME280;64515;51.446;7.578;2022-10-26T07:58:31;100121.13;;;20.49;59.53
75868;BME280;64515;51.446;7.578;2022-10-26T08:00:56;100122.84;;;20.50;59.57
75868;BME280;64515;51.446;7.578;2022-10-26T08:03:21;100126.31;;;20.52;59.40
75868;BME280;64515;51.446;7.578;2022-10-26T08:05:47;100125.47;;;20.52;59.32
75868;BME280;64515;51.446;7.578;2022-10-26T08:08:15;100131.88;;;20.51;59.54
75868;BME280;64515;51.446;7.578;2022-10-26T08:10:41;100128.19;;;20.52;59.40
75868;BME280;64515;51.446;7.578;2022-10-26T08:13:06;100129.03;;;20.52;59.58
75868;BME280;64515;51.446;7.578;2022-10-26T08:15:31;100138.06;;;20.53;59.50
75868;BME280;64515;51.446;7.578;2022-10-26T08:17:57;100134.25;;;20.56;59.39
75868;BME280;64515;51.446;7.578;2022-10-26T08:20:22;100136.97;;;20.56;59.50
75868;BME280;64515;51.446;7.578;2022-10-26T08:22:47;100140.44;;;20.58;59.46
75868;BME280;64515;51.446;7.578;2022-10-26T08:25:12;100136.00;;;20.57;59.47
75868;BME280;64515;51.446;7.578;2022-10-26T08:27:37;100136.97;;;20.56;59.57
75868;BME280;64515;51.446;7.578;2022-10-26T08:30:03;100143.25;;;20.56;59.43
75868;BME280;64515;51.446;7.578;2022-10-26T08:32:28;100146.88;;;20.57;59.44
75868;BME280;64515;51.446;7.578;2022-10-26T08:34:53;100143.25;;;20.56;59.55
75868;BME280;64515;51.446;7.578;2022-10-26T08:37:18;100140.44;;;20.58;59.56
75868;BME280;64515;51.446;7.578;2022-10-26T08:39:43;100142.41;;;20.56;59.57
75868;BME280;64515;51.446;7.578;2022-10-26T08:42:13;100142.41;;;20.56;59.56
75868;BME280;64515;51.446;7.578;2022-10-26T08:44:47;100140.44;;;20.58;59.61
75868;BME280;64515;51.446;7.578;2022-10-26T08:47:21;100131.53;;;20.56;59.55
